sensor_id;sensor_type;location;lat;lon;timestamp;P1;durP1;ratioP1;P2;durP2;ratioP2
15126;SDS011;7664;52.008;4.748;2022-10-04T00:00:50;6.50;;;3.65;;
15126;SDS011;7664;52.008;4.748;2022-10-04T00:03:26;5.63;;;4.15;;
15126;SDS011;7664;52.008;4.748;2022-10-04T00:05:56;7.30;;;3.80;;
15126;SDS011;7664;52.008;4.748;2022-10-04T00:08:29;6.25;;;3.83;;
15126;SDS011;7664;52.008;4.748;2022-10-04T00:11:03;7.03;;;3.92;;
15126;SDS011;7664;52.008;4.748;2022-10-04T00:13:34;7.57;;;4.18;;
15126;SDS011;7664;52.008;4.748;2022-10-04T00:16:04;6.93;;;4.05;;
15126;SDS011;7664;52.008;4.748;2022-10-04T00:18:36;7.97;;;4.38;;
15126;SDS011;7664;52.008;4.748;2022-10-04T00:21:06;8.07;;;4.50;;
15126;SDS011;7664;52.008;4.748;2022-10-04T00:23:45;6.95;;;4.25;;
15126;SDS011;7664;52.008;4.748;2022-10-04T00:29:31;8.98;;;4.63;;
15126;SDS011;7664;52.008;4.748;2022-10-04T00:34:52;7.10;;;4.47;;
15126;SDS011;7664;52.008;4.748;2022-10-04T00:37:21;7.75;;;4.55;;
15126;SDS011;7664;52.008;4.748;2022-10-04T00:40:07;5.72;;;4.68;;
15126;SDS011;7664;52.008;4.748;2022-10-04T00:45:30;9.63;;;4.82;;
15126;SDS011;7664;52.008;4.748;2022-10-04T00:48:16;7.28;;;4.07;;
15126;SDS011;7664;52.008;4.748;2022-10-04T00:51:16;11.85;;;5.28;;
15126;SDS011;7664;52.008;4.748;2022-10-04T00:53:50;8.77;;;4.97;;
15126;SDS011;7664;52.008;4.748;2022-10-04T00:56:27;8.45;;;5.35;;
15126;SDS011;7664;52.008;4.748;2022-10-04T00:59:11;10.35;;;4.80;;
15126;SDS011;7664;52.008;4.748;2022-10-04T01:01:48;5.82;;;4.32;;
15126;SDS011;7664;52.008;4.748;2022-10-04T01:04:23;6.10;;;4.32;;
15126;SDS011;7664;52.008;4.748;2022-10-04T01:06:57;8.68;;;4.57;;
15126;SDS011;7664;52.008;4.748;2022-10-04T01:09:28;9.43;;;4.47;;
15126;SDS011;7664;52.008;4.748;2022-10-04T01:12:03;6.47;;;4.65;;
15126;SDS011;7664;52.008;4.748;2022-10-04T01:14:39;10.10;;;4.88;;
15126;SDS011;7664;52.008;4.748;2022-10-04T01:17:17;6.93;;;5.22;;
15126;SDS011;7664;52.008;4.748;2022-10-04T01:19:48;10.88;;;5.30;;
15126;SDS011;7664;52.008;4.748;2022-10-04T01:22:39;8.00;;;5.00;;
15126;SDS011;7664;52.008;4.748;2022-10-04T01:25:09;10.30;;;5.38;;
15126;SDS011;7664;52.008;4.748;2022-10-04T01:27:57;13.05;;;5.28;;
15126;SDS011;7664;52.008;4.748;2022-10-04T01:30:26;7.82;;;4.97;;
15126;SDS011;7664;52.008;4.748;2022-10-04T01:32:53;9.32;;;5.88;;
15126;SDS011;7664;52.008;4.748;2022-10-04T01:35:21;8.75;;;5.55;;
15126;SDS011;7664;52.008;4.748;2022-10-04T01:37:51;7.43;;;4.60;;
15126;SDS011;7664;52.008;4.748;2022-10-04T01:40:20;8.07;;;5.07;;
15126;SDS011;7664;52.008;4.748;2022-10-04T01:42:49;6.97;;;5.05;;
15126;SDS011;7664;52.008;4.748;2022-10-04T01:45:22;8.32;;;4.25;;
15126;SDS011;7664;52.008;4.748;2022-10-04T01:47:55;9.07;;;4.95;;
15126;SDS011;7664;52.008;4.748;2022-10-04T01:50:27;12.07;;;5.88;;
15126;SDS011;7664;52.008;4.748;2022-10-04T01:52:59;8.90;;;5.53;;
15126;SDS011;7664;52.008;4.748;2022-10-04T01:55:37;7.70;;;4.95;;
15126;SDS011;7664;52.008;4.748;2022-10-04T01:58:08;7.80;;;4.72;;
15126;SDS011;7664;52.008;4.748;2022-10-04T02:00:41;7.28;;;4.68;;
15126;SDS011;7664;52.008;4.748;2022-10-04T02:03:13;10.82;;;6.28;;
15126;SDS011;7664;52.008;4.748;2022-10-04T02:05:48;7.75;;;5.10;;
15126;SDS011;7664;52.008;4.748;2022-10-04T02:08:22;7.57;;;5.35;;
15126;SDS011;7664;52.008;4.748;2022-10-04T02:10:53;8.85;;;5.43;;
15126;SDS011;7664;52.008;4.748;2022-10-04T02:13:22;9.98;;;4.70;;
15126;SDS011;7664;52.008;4.748;2022-10-04T02:15:55;7.05;;;5.53;;
15126;SDS011;7664;52.008;4.748;2022-10-04T02:18:25;9.32;;;5.45;;
15126;SDS011;7664;52.008;4.748;2022-10-04T02:20:54;9.45;;;5.88;;
15126;SDS011;7664;52.008;4.748;2022-10-04T02:23:24;10.23;;;4.95;;
15126;SDS011;7664;52.008;4.748;2022-10-04T02:25:53;8.88;;;5.38;;
15126;SDS011;7664;52.008;4.748;2022-10-04T02:28:21;8.18;;;5.45;;
15126;SDS011;7664;52.008;4.748;2022-10-04T02:30:49;9.10;;;5.20;;
15126;SDS011;7664;52.008;4.748;2022-10-04T02:33:38;10.52;;;5.32;;
15126;SDS011;7664;52.008;4.748;2022-10-04T02:36:08;7.00;;;5.32;;
15126;SDS011;7664;52.008;4.748;2022-10-04T02:38:39;9.20;;;6.40;;
15126;SDS011;7664;52.008;4.748;2022-10-04T02:41:16;7.53;;;5.07;;
15126;SDS011;7664;52.008;4.748;2022-10-04T02:43:49;8.13;;;5.45;;
15126;SDS011;7664;52.008;4.748;2022-10-04T02:46:22;8.80;;;5.57;;
15126;SDS011;7664;52.008;4.748;2022-10-04T02:48:55;7.38;;;5.03;;
15126;SDS011;7664;52.008;4.748;2022-10-04T02:51:26;7.38;;;5.30;;
15126;SDS011;7664;52.008;4.748;2022-10-04T02:54:01;11.23;;;5.75;;
15126;SDS011;7664;52.008;4.748;2022-10-04T02:56:32;8.02;;;6.18;;
15126;SDS011;7664;52.008;4.748;2022-10-04T02:59:01;10.82;;;5.70;;
15126;SDS011;7664;52.008;4.748;2022-10-04T03:01:38;8.35;;;6.30;;
15126;SDS011;7664;52.008;4.748;2022-10-04T03:04:10;7.85;;;5.53;;
15126;SDS011;7664;52.008;4.748;2022-10-04T03:06:41;10.52;;;5.80;;
15126;SDS011;7664;52.008;4.748;2022-10-04T03:09:12;10.65;;;6.57;;
15126;SDS011;7664;52.008;4.748;2022-10-04T03:11:41;11.40;;;7.07;;
15126;SDS011;7664;52.008;4.748;2022-10-04T03:14:11;10.43;;;6.32;;
15126;SDS011;7664;52.008;4.748;2022-10-04T03:16:42;8.20;;;5.65;;
15126;SDS011;7664;52.008;4.748;2022-10-04T03:19:12;6.85;;;5.90;;
15126;SDS011;7664;52.008;4.748;2022-10-04T03:21:43;8.85;;;5.68;;
15126;SDS011;7664;52.008;4.748;2022-10-04T03:24:16;9.02;;;6.30;;
15126;SDS011;7664;52.008;4.748;2022-10-04T03:26:48;11.25;;;6.43;;
15126;SDS011;7664;52.008;4.748;2022-10-04T03:29:19;7.78;;;6.35;;
15126;SDS011;7664;52.008;4.748;2022-10-04T03:31:50;10.65;;;6.15;;
15126;SDS011;7664;52.008;4.748;2022-10-04T03:34:23;9.65;;;6.28;;
15126;SDS011;7664;52.008;4.748;2022-10-04T03:36:54;11.30;;;6.47;;
15126;SDS011;7664;52.008;4.748;2022-10-04T03:39:28;11.52;;;5.68;;
15126;SDS011;7664;52.008;4.748;2022-10-04T03:42:00;10.63;;;6.70;;
15126;SDS011;7664;52.008;4.748;2022-10-04T03:44:31;11.10;;;6.32;;
15126;SDS011;7664;52.008;4.748;2022-10-04T03:47:00;8.20;;;6.05;;
15126;SDS011;7664;52.008;4.748;2022-10-04T03:49:34;9.80;;;6.30;;
15126;SDS011;7664;52.008;4.748;2022-10-04T03:52:03;11.60;;;6.70;;
15126;SDS011;7664;52.008;4.748;2022-10-04T03:54:34;8.15;;;6.30;;
15126;SDS011;7664;52.008;4.748;2022-10-04T03:57:02;8.88;;;5.70;;
15126;SDS011;7664;52.008;4.748;2022-10-04T03:59:32;10.75;;;6.55;;
15126;SDS011;7664;52.008;4.748;2022-10-04T04:02:04;10.60;;;6.25;;
15126;SDS011;7664;52.008;4.748;2022-10-04T04:04:41;12.85;;;7.15;;
15126;SDS011;7664;52.008;4.748;2022-10-04T04:07:16;10.07;;;6.65;;
15126;SDS011;7664;52.008;4.748;2022-10-04T04:09:51;11.18;;;7.25;;
15126;SDS011;7664;52.008;4.748;2022-10-04T04:12:25;13.00;;;7.15;;
15126;SDS011;7664;52.008;4.748;2022-10-04T04:15:01;10.90;;;7.47;;
15126;SDS011;7664;52.008;4.748;2022-10-04T04:17:36;11.07;;;7.22;;
15126;SDS011;7664;52.008;4.748;2022-10-04T04:20:17;9.30;;;6.40;;
15126;SDS011;7664;52.008;4.748;2022-10-04T04:22:51;7.55;;;6.35;;
15126;SDS011;7664;52.008;4.748;2022-10-04T04:25:26;13.80;;;7.03;;
15126;SDS011;7664;52.008;4.748;2022-10-04T04:27:59;9.10;;;6.85;;
15126;SDS011;7664;52.008;4.748;2022-10-04T04:30:31;11.20;;;7.45;;
15126;SDS011;7664;52.008;4.748;2022-10-04T04:33:06;8.23;;;6.93;;
15126;SDS011;7664;52.008;4.748;2022-10-04T04:35:46;10.52;;;6.97;;
15126;SDS011;7664;52.008;4.748;2022-10-04T04:38:16;9.00;;;7.25;;
15126;SDS011;7664;52.008;4.748;2022-10-04T04:40:49;10.73;;;7.63;;
15126;SDS011;7664;52.008;4.748;2022-10-04T04:43:20;10.85;;;7.75;;
15126;SDS011;7664;52.008;4.748;2022-10-04T04:45:52;11.82;;;7.90;;
15126;SDS011;7664;52.008;4.748;2022-10-04T04:48:43;9.98;;;6.35;;
15126;SDS011;7664;52.008;4.748;2022-10-04T04:51:13;11.32;;;7.25;;
15126;SDS011;7664;52.008;4.748;2022-10-04T04:53:46;12.00;;;7.03;;
15126;SDS011;7664;52.008;4.748;2022-10-04T04:56:17;11.60;;;7.15;;
15126;SDS011;7664;52.008;4.748;2022-10-04T04:58:48;13.10;;;7.43;;
15126;SDS011;7664;52.008;4.748;2022-10-04T05:01:20;9.10;;;7.43;;
15126;SDS011;7664;52.008;4.748;2022-10-04T05:04:02;10.00;;;7.18;;
15126;SDS011;7664;52.008;4.748;2022-10-04T05:06:31;12.80;;;6.75;;
15126;SDS011;7664;52.008;4.748;2022-10-04T05:09:02;12.90;;;7.78;;
15126;SDS011;7664;52.008;4.748;2022-10-04T05:11:32;12.02;;;6.78;;
15126;SDS011;7664;52.008;4.748;2022-10-04T05:14:03;11.38;;;8.30;;
15126;SDS011;7664;52.008;4.748;2022-10-04T05:16:36;11.23;;;7.13;;
15126;SDS011;7664;52.008;4.748;2022-10-04T05:19:11;9.15;;;6.55;;
15126;SDS011;7664;52.008;4.748;2022-10-04T05:21:43;9.50;;;6.90;;
15126;SDS011;7664;52.008;4.748;2022-10-04T05:24:16;12.80;;;6.80;;
15126;SDS011;7664;52.008;4.748;2022-10-04T05:26:51;13.88;;;7.32;;
15126;SDS011;7664;52.008;4.748;2022-10-04T05:29:22;9.15;;;6.35;;
15126;SDS011;7664;52.008;4.748;2022-10-04T05:31:55;10.95;;;7.30;;
15126;SDS011;7664;52.008;4.748;2022-10-04T05:34:30;13.55;;;7.13;;
15126;SDS011;7664;52.008;4.748;2022-10-04T05:37:08;9.40;;;6.63;;
15126;SDS011;7664;52.008;4.748;2022-10-04T05:39:50;9.77;;;6.55;;
15126;SDS011;7664;52.008;4.748;2022-10-04T05:42:29;10.48;;;6.60;;
15126;SDS011;7664;52.008;4.748;2022-10-04T05:45:11;12.88;;;7.13;;
15126;SDS011;7664;52.008;4.748;2022-10-04T05:47:43;12.75;;;7.78;;
15126;SDS011;7664;52.008;4.748;2022-10-04T05:50:15;11.02;;;7.25;;
15126;SDS011;7664;52.008;4.748;2022-10-04T05:52:46;14.75;;;7.78;;
15126;SDS011;7664;52.008;4.748;2022-10-04T05:55:21;9.38;;;6.18;;
15126;SDS011;7664;52.008;4.748;2022-10-04T05:58:06;9.80;;;6.65;;
15126;SDS011;7664;52.008;4.748;2022-10-04T06:01:05;9.80;;;6.15;;
15126;SDS011;7664;52.008;4.748;2022-10-04T06:06:43;10.02;;;7.03;;
15126;SDS011;7664;52.008;4.748;2022-10-04T06:09:20;10.18;;;6.53;;
15126;SDS011;7664;52.008;4.748;2022-10-04T06:12:05;10.13;;;6.95;;
15126;SDS011;7664;52.008;4.748;2022-10-04T06:14:48;11.50;;;6.85;;
15126;SDS011;7664;52.008;4.748;2022-10-04T06:17:40;9.82;;;6.80;;
15126;SDS011;7664;52.008;4.748;2022-10-04T06:20:24;11.52;;;7.10;;
15126;SDS011;7664;52.008;4.748;2022-10-04T06:23:12;11.23;;;6.65;;
15126;SDS011;7664;52.008;4.748;2022-10-04T06:25:42;12.00;;;6.88;;
15126;SDS011;7664;52.008;4.748;2022-10-04T06:28:14;13.88;;;7.55;;
15126;SDS011;7664;52.008;4.748;2022-10-04T06:30:52;13.05;;;8.00;;
15126;SDS011;7664;52.008;4.748;2022-10-04T06:33:37;13.02;;;7.45;;
15126;SDS011;7664;52.008;4.748;2022-10-04T06:36:30;10.65;;;7.10;;
15126;SDS011;7664;52.008;4.748;2022-10-04T06:39:17;11.68;;;7.50;;
15126;SDS011;7664;52.008;4.748;2022-10-04T06:42:21;14.18;;;7.05;;
15126;SDS011;7664;52.008;4.748;2022-10-04T06:45:15;10.70;;;7.18;;
15126;SDS011;7664;52.008;4.748;2022-10-04T06:48:00;10.65;;;6.82;;
15126;SDS011;7664;52.008;4.748;2022-10-04T06:50:48;10.27;;;7.10;;
15126;SDS011;7664;52.008;4.748;2022-10-04T06:53:22;13.13;;;7.38;;
15126;SDS011;7664;52.008;4.748;2022-10-04T06:55:55;13.43;;;7.53;;
15126;SDS011;7664;52.008;4.748;2022-10-04T06:58:46;11.63;;;7.15;;
15126;SDS011;7664;52.008;4.748;2022-10-04T07:01:33;13.15;;;7.90;;
15126;SDS011;7664;52.008;4.748;2022-10-04T07:04:08;14.48;;;7.82;;
15126;SDS011;7664;52.008;4.748;2022-10-04T07:06:48;14.05;;;8.52;;
15126;SDS011;7664;52.008;4.748;2022-10-04T07:09:41;13.73;;;7.95;;
15126;SDS011;7664;52.008;4.748;2022-10-04T07:12:12;12.20;;;7.47;;
15126;SDS011;7664;52.008;4.748;2022-10-04T07:14:43;10.13;;;7.10;;
15126;SDS011;7664;52.008;4.748;2022-10-04T07:17:16;10.90;;;7.63;;
15126;SDS011;7664;52.008;4.748;2022-10-04T07:19:51;12.18;;;8.52;;
15126;SDS011;7664;52.008;4.748;2022-10-04T07:22:21;13.48;;;8.90;;
15126;SDS011;7664;52.008;4.748;2022-10-04T07:24:58;11.73;;;7.90;;
15126;SDS011;7664;52.008;4.748;2022-10-04T07:27:35;9.88;;;7.63;;
15126;SDS011;7664;52.008;4.748;2022-10-04T07:30:14;12.75;;;7.40;;
15126;SDS011;7664;52.008;4.748;2022-10-04T07:32:43;13.60;;;8.23;;
15126;SDS011;7664;52.008;4.748;2022-10-04T07:35:15;14.52;;;8.80;;
15126;SDS011;7664;52.008;4.748;2022-10-04T07:37:56;18.55;;;8.75;;
15126;SDS011;7664;52.008;4.748;2022-10-04T07:40:32;11.27;;;7.65;;
15126;SDS011;7664;52.008;4.748;2022-10-04T07:43:05;11.82;;;8.32;;
15126;SDS011;7664;52.008;4.748;2022-10-04T07:45:39;12.73;;;8.50;;
15126;SDS011;7664;52.008;4.748;2022-10-04T07:48:10;12.20;;;8.20;;
15126;SDS011;7664;52.008;4.748;2022-10-04T07:50:44;14.20;;;8.38;;
15126;SDS011;7664;52.008;4.748;2022-10-04T07:53:22;14.68;;;8.77;;
15126;SDS011;7664;52.008;4.748;2022-10-04T07:55:59;15.73;;;8.35;;
15126;SDS011;7664;52.008;4.748;2022-10-04T07:58:36;14.40;;;8.93;;
15126;SDS011;7664;52.008;4.748;2022-10-04T08:01:16;12.60;;;8.23;;
15126;SDS011;7664;52.008;4.748;2022-10-04T08:03:54;18.90;;;8.02;;
15126;SDS011;7664;52.008;4.748;2022-10-04T08:06:32;13.20;;;8.13;;
15126;SDS011;7664;52.008;4.748;2022-10-04T08:09:09;14.40;;;7.78;;
15126;SDS011;7664;52.008;4.748;2022-10-04T08:11:47;13.68;;;7.40;;
15126;SDS011;7664;52.008;4.748;2022-10-04T08:14:26;10.60;;;7.40;;
15126;SDS011;7664;52.008;4.748;2022-10-04T08:17:10;10.63;;;6.80;;
15126;SDS011;7664;52.008;4.748;2022-10-04T08:19:51;13.68;;;7.88;;
15126;SDS011;7664;52.008;4.748;2022-10-04T08:22:38;11.95;;;8.02;;
15126;SDS011;7664;52.008;4.748;2022-10-04T08:25:20;10.20;;;6.55;;
15126;SDS011;7664;52.008;4.748;2022-10-04T08:27:57;13.98;;;8.02;;
15126;SDS011;7664;52.008;4.748;2022-10-04T08:33:43;11.93;;;7.28;;
15126;SDS011;7664;52.008;4.748;2022-10-04T08:36:24;12.00;;;7.53;;
15126;SDS011;7664;52.008;4.748;2022-10-04T08:39:09;11.95;;;7.07;;
15126;SDS011;7664;52.008;4.748;2022-10-04T08:42:00;9.85;;;6.80;;
15126;SDS011;7664;52.008;4.748;2022-10-04T08:48:09;13.85;;;7.65;;
15126;SDS011;7664;52.008;4.748;2022-10-04T08:51:15;13.60;;;7.57;;
15126;SDS011;7664;52.008;4.748;2022-10-04T08:54:17;12.65;;;7.70;;
15126;SDS011;7664;52.008;4.748;2022-10-04T08:57:12;12.48;;;7.50;;
15126;SDS011;7664;52.008;4.748;2022-10-04T09:00:03;11.98;;;7.60;;
15126;SDS011;7664;52.008;4.748;2022-10-04T09:02:57;11.65;;;7.25;;
15126;SDS011;7664;52.008;4.748;2022-10-04T09:06:12;12.80;;;8.10;;
15126;SDS011;7664;52.008;4.748;2022-10-04T09:09:02;11.35;;;6.50;;
15126;SDS011;7664;52.008;4.748;2022-10-04T09:15:05;16.35;;;7.97;;
15126;SDS011;7664;52.008;4.748;2022-10-04T09:17:46;10.10;;;7.45;;
15126;SDS011;7664;52.008;4.748;2022-10-04T09:20:21;14.07;;;7.93;;
15126;SDS011;7664;52.008;4.748;2022-10-04T09:23:07;14.77;;;7.55;;
15126;SDS011;7664;52.008;4.748;2022-10-04T09:25:46;12.98;;;7.28;;
15126;SDS011;7664;52.008;4.748;2022-10-04T09:28:27;14.88;;;7.63;;
15126;SDS011;7664;52.008;4.748;2022-10-04T09:31:17;10.90;;;6.95;;
15126;SDS011;7664;52.008;4.748;2022-10-04T09:34:09;11.02;;;6.88;;
15126;SDS011;7664;52.008;4.748;2022-10-04T09:37:06;10.88;;;6.50;;
15126;SDS011;7664;52.008;4.748;2022-10-04T09:39:59;11.95;;;6.15;;
15126;SDS011;7664;52.008;4.748;2022-10-04T09:42:51;12.05;;;6.78;;
15126;SDS011;7664;52.008;4.748;2022-10-04T09:45:43;8.82;;;6.30;;
15126;SDS011;7664;52.008;4.748;2022-10-04T09:48:27;9.63;;;5.97;;
15126;SDS011;7664;52.008;4.748;2022-10-04T09:54:19;11.57;;;6.10;;
15126;SDS011;7664;52.008;4.748;2022-10-04T09:57:25;10.15;;;6.88;;
15126;SDS011;7664;52.008;4.748;2022-10-04T10:00:17;9.40;;;5.90;;
15126;SDS011;7664;52.008;4.748;2022-10-04T10:02:55;7.90;;;5.47;;
15126;SDS011;7664;52.008;4.748;2022-10-04T10:05:47;7.57;;;4.85;;
15126;SDS011;7664;52.008;4.748;2022-10-04T10:08:25;10.18;;;5.85;;
15126;SDS011;7664;52.008;4.748;2022-10-04T10:11:03;9.75;;;5.90;;
15126;SDS011;7664;52.008;4.748;2022-10-04T10:14:08;11.18;;;5.65;;
15126;SDS011;7664;52.008;4.748;2022-10-04T10:16:54;11.27;;;5.70;;
15126;SDS011;7664;52.008;4.748;2022-10-04T10:19:35;9.18;;;5.28;;
15126;SDS011;7664;52.008;4.748;2022-10-04T10:22:21;10.95;;;5.95;;
15126;SDS011;7664;52.008;4.748;2022-10-04T10:25:06;8.50;;;5.18;;
15126;SDS011;7664;52.008;4.748;2022-10-04T10:27:48;10.02;;;6.13;;
15126;SDS011;7664;52.008;4.748;2022-10-04T10:30:32;9.18;;;5.30;;
15126;SDS011;7664;52.008;4.748;2022-10-04T10:33:22;11.63;;;5.95;;
15126;SDS011;7664;52.008;4.748;2022-10-04T10:36:08;9.50;;;5.47;;
15126;SDS011;7664;52.008;4.748;2022-10-04T10:38:56;11.10;;;5.35;;
15126;SDS011;7664;52.008;4.748;2022-10-04T10:41:47;8.00;;;5.35;;
15126;SDS011;7664;52.008;4.748;2022-10-04T10:44:30;9.52;;;5.93;;
15126;SDS011;7664;52.008;4.748;2022-10-04T10:47:13;9.52;;;5.22;;
15126;SDS011;7664;52.008;4.748;2022-10-04T10:49:58;9.32;;;6.13;;
15126;SDS011;7664;52.008;4.748;2022-10-04T10:52:41;7.75;;;4.97;;
15126;SDS011;7664;52.008;4.748;2022-10-04T10:55:36;8.18;;;4.80;;
15126;SDS011;7664;52.008;4.748;2022-10-04T10:58:33;8.73;;;5.35;;
15126;SDS011;7664;52.008;4.748;2022-10-04T11:01:43;9.25;;;5.70;;
15126;SDS011;7664;52.008;4.748;2022-10-04T11:04:44;7.15;;;4.93;;
15126;SDS011;7664;52.008;4.748;2022-10-04T11:07:27;8.23;;;4.78;;
15126;SDS011;7664;52.008;4.748;2022-10-04T11:10:15;6.80;;;4.25;;
15126;SDS011;7664;52.008;4.748;2022-10-04T11:13:16;8.45;;;5.32;;
15126;SDS011;7664;52.008;4.748;2022-10-04T11:16:08;6.10;;;4.43;;
15126;SDS011;7664;52.008;4.748;2022-10-04T11:19:22;6.15;;;4.07;;
15126;SDS011;7664;52.008;4.748;2022-10-04T11:22:22;5.78;;;4.18;;
15126;SDS011;7664;52.008;4.748;2022-10-04T11:25:15;17.35;;;4.35;;
15126;SDS011;7664;52.008;4.748;2022-10-04T11:28:06;7.82;;;3.28;;
15126;SDS011;7664;52.008;4.748;2022-10-04T11:31:00;11.02;;;3.38;;
15126;SDS011;7664;52.008;4.748;2022-10-04T11:33:57;8.50;;;3.35;;
15126;SDS011;7664;52.008;4.748;2022-10-04T11:36:47;7.13;;;3.20;;
15126;SDS011;7664;52.008;4.748;2022-10-04T11:39:32;4.55;;;2.80;;
15126;SDS011;7664;52.008;4.748;2022-10-04T11:42:25;5.15;;;2.80;;
15126;SDS011;7664;52.008;4.748;2022-10-04T11:45:24;4.03;;;2.53;;
15126;SDS011;7664;52.008;4.748;2022-10-04T11:48:17;3.80;;;2.88;;
15126;SDS011;7664;52.008;4.748;2022-10-04T11:51:04;7.57;;;2.88;;
15126;SDS011;7664;52.008;4.748;2022-10-04T11:53:58;5.30;;;3.10;;
15126;SDS011;7664;52.008;4.748;2022-10-04T11:57:04;6.10;;;3.92;;
15126;SDS011;7664;52.008;4.748;2022-10-04T11:59:44;5.22;;;3.90;;
15126;SDS011;7664;52.008;4.748;2022-10-04T12:08:21;6.72;;;3.60;;
15126;SDS011;7664;52.008;4.748;2022-10-04T12:11:08;4.93;;;2.85;;
15126;SDS011;7664;52.008;4.748;2022-10-04T12:14:20;5.38;;;3.45;;
15126;SDS011;7664;52.008;4.748;2022-10-04T12:17:07;6.15;;;3.45;;
15126;SDS011;7664;52.008;4.748;2022-10-04T12:19:59;5.13;;;3.80;;
15126;SDS011;7664;52.008;4.748;2022-10-04T12:22:52;5.38;;;3.42;;
15126;SDS011;7664;52.008;4.748;2022-10-04T12:25:44;7.95;;;3.42;;
15126;SDS011;7664;52.008;4.748;2022-10-04T12:28:34;5.68;;;3.22;;
15126;SDS011;7664;52.008;4.748;2022-10-04T12:31:22;4.57;;;3.00;;
15126;SDS011;7664;52.008;4.748;2022-10-04T12:33:57;6.32;;;3.10;;
15126;SDS011;7664;52.008;4.748;2022-10-04T12:36:37;6.10;;;3.90;;
15126;SDS011;7664;52.008;4.748;2022-10-04T12:39:29;7.10;;;4.13;;
15126;SDS011;7664;52.008;4.748;2022-10-04T12:42:11;5.13;;;3.50;;
15126;SDS011;7664;52.008;4.748;2022-10-04T12:45:02;7.20;;;3.33;;
15126;SDS011;7664;52.008;4.748;2022-10-04T12:47:50;6.45;;;3.60;;
15126;SDS011;7664;52.008;4.748;2022-10-04T12:50:30;7.78;;;3.75;;
15126;SDS011;7664;52.008;4.748;2022-10-04T12:53:13;4.50;;;2.75;;
15126;SDS011;7664;52.008;4.748;2022-10-04T12:55:54;4.22;;;3.00;;
15126;SDS011;7664;52.008;4.748;2022-10-04T12:58:32;7.13;;;3.53;;
15126;SDS011;7664;52.008;4.748;2022-10-04T13:01:25;6.30;;;3.40;;
15126;SDS011;7664;52.008;4.748;2022-10-04T13:04:09;6.22;;;3.65;;
15126;SDS011;7664;52.008;4.748;2022-10-04T13:06:50;6.55;;;3.47;;
15126;SDS011;7664;52.008;4.748;2022-10-04T13:09:31;5.50;;;3.35;;
15126;SDS011;7664;52.008;4.748;2022-10-04T13:12:34;6.72;;;3.75;;
15126;SDS011;7664;52.008;4.748;2022-10-04T13:15:16;5.05;;;3.75;;
15126;SDS011;7664;52.008;4.748;2022-10-04T13:17:52;4.43;;;3.17;;
15126;SDS011;7664;52.008;4.748;2022-10-04T13:20:37;5.38;;;3.15;;
15126;SDS011;7664;52.008;4.748;2022-10-04T13:23:20;5.13;;;3.78;;
15126;SDS011;7664;52.008;4.748;2022-10-04T13:29:02;9.98;;;4.10;;
15126;SDS011;7664;52.008;4.748;2022-10-04T13:31:34;6.30;;;3.53;;
15126;SDS011;7664;52.008;4.748;2022-10-04T13:34:10;6.82;;;3.30;;
15126;SDS011;7664;52.008;4.748;2022-10-04T13:36:49;8.95;;;4.65;;
15126;SDS011;7664;52.008;4.748;2022-10-04T13:39:33;5.90;;;4.10;;
15126;SDS011;7664;52.008;4.748;2022-10-04T13:42:18;5.38;;;3.30;;
15126;SDS011;7664;52.008;4.748;2022-10-04T13:45:13;5.13;;;3.05;;
15126;SDS011;7664;52.008;4.748;2022-10-04T13:47:58;6.93;;;3.47;;
15126;SDS011;7664;52.008;4.748;2022-10-04T13:50:51;6.35;;;3.05;;
15126;SDS011;7664;52.008;4.748;2022-10-04T13:53:35;4.05;;;2.80;;
15126;SDS011;7664;52.008;4.748;2022-10-04T13:56:38;7.50;;;2.92;;
15126;SDS011;7664;52.008;4.748;2022-10-04T13:59:21;4.75;;;3.30;;
15126;SDS011;7664;52.008;4.748;2022-10-04T14:02:16;4.15;;;3.13;;
15126;SDS011;7664;52.008;4.748;2022-10-04T14:05:02;4.82;;;3.38;;
15126;SDS011;7664;52.008;4.748;2022-10-04T14:08:13;6.57;;;3.30;;
15126;SDS011;7664;52.008;4.748;2022-10-04T14:14:20;6.15;;;3.28;;
15126;SDS011;7664;52.008;4.748;2022-10-04T14:17:22;7.45;;;3.80;;
15126;SDS011;7664;52.008;4.748;2022-10-04T14:23:28;10.90;;;4.57;;
15126;SDS011;7664;52.008;4.748;2022-10-04T14:26:29;6.35;;;3.15;;
15126;SDS011;7664;52.008;4.748;2022-10-04T14:29:30;6.15;;;3.30;;
15126;SDS011;7664;52.008;4.748;2022-10-04T14:32:22;6.22;;;3.30;;
15126;SDS011;7664;52.008;4.748;2022-10-04T14:35:13;4.70;;;3.05;;
15126;SDS011;7664;52.008;4.748;2022-10-04T14:38:01;5.63;;;2.70;;
15126;SDS011;7664;52.008;4.748;2022-10-04T14:41:06;3.75;;;3.10;;
15126;SDS011;7664;52.008;4.748;2022-10-04T14:44:00;5.55;;;3.20;;
15126;SDS011;7664;52.008;4.748;2022-10-04T14:46:48;5.95;;;3.20;;
15126;SDS011;7664;52.008;4.748;2022-10-04T14:49:25;7.38;;;3.67;;
15126;SDS011;7664;52.008;4.748;2022-10-04T14:52:16;5.70;;;2.80;;
15126;SDS011;7664;52.008;4.748;2022-10-04T14:55:06;6.80;;;3.25;;
15126;SDS011;7664;52.008;4.748;2022-10-04T14:57:54;8.63;;;3.25;;
15126;SDS011;7664;52.008;4.748;2022-10-04T15:00:32;8.80;;;3.30;;
15126;SDS011;7664;52.008;4.748;2022-10-04T15:03:29;6.57;;;3.67;;
15126;SDS011;7664;52.008;4.748;2022-10-04T15:06:15;7.20;;;3.80;;
15126;SDS011;7664;52.008;4.748;2022-10-04T15:09:15;6.40;;;3.67;;
15126;SDS011;7664;52.008;4.748;2022-10-04T15:11:54;6.85;;;4.18;;
15126;SDS011;7664;52.008;4.748;2022-10-04T15:15:00;8.35;;;3.35;;
15126;SDS011;7664;52.008;4.748;2022-10-04T15:17:53;7.05;;;3.40;;
15126;SDS011;7664;52.008;4.748;2022-10-04T15:20:27;4.50;;;3.08;;
15126;SDS011;7664;52.008;4.748;2022-10-04T15:23:07;6.38;;;3.40;;
15126;SDS011;7664;52.008;4.748;2022-10-04T15:25:41;6.05;;;3.25;;
15126;SDS011;7664;52.008;4.748;2022-10-04T15:28:15;4.80;;;3.22;;
15126;SDS011;7664;52.008;4.748;2022-10-04T15:30:59;6.82;;;4.22;;
15126;SDS011;7664;52.008;4.748;2022-10-04T15:33:34;3.95;;;3.40;;
15126;SDS011;7664;52.008;4.748;2022-10-04T15:36:13;5.28;;;3.42;;
15126;SDS011;7664;52.008;4.748;2022-10-04T15:38:54;5.65;;;3.70;;
15126;SDS011;7664;52.008;4.748;2022-10-04T15:41:32;5.57;;;3.03;;
15126;SDS011;7664;52.008;4.748;2022-10-04T15:44:25;6.28;;;4.25;;
15126;SDS011;7664;52.008;4.748;2022-10-04T15:47:13;6.22;;;3.85;;
15126;SDS011;7664;52.008;4.748;2022-10-04T15:49:50;6.72;;;3.67;;
15126;SDS011;7664;52.008;4.748;2022-10-04T15:55:30;16.30;;;3.65;;
15126;SDS011;7664;52.008;4.748;2022-10-04T15:58:36;5.15;;;3.45;;
15126;SDS011;7664;52.008;4.748;2022-10-04T16:01:22;9.25;;;3.42;;
15126;SDS011;7664;52.008;4.748;2022-10-04T16:04:16;6.53;;;3.28;;
15126;SDS011;7664;52.008;4.748;2022-10-04T16:06:59;5.88;;;3.78;;
15126;SDS011;7664;52.008;4.748;2022-10-04T16:09:39;7.35;;;4.07;;
15126;SDS011;7664;52.008;4.748;2022-10-04T16:12:18;7.05;;;3.88;;
15126;SDS011;7664;52.008;4.748;2022-10-04T16:14:53;4.60;;;3.45;;
15126;SDS011;7664;52.008;4.748;2022-10-04T16:20:37;6.28;;;3.78;;
15126;SDS011;7664;52.008;4.748;2022-10-04T16:23:27;6.63;;;3.47;;
15126;SDS011;7664;52.008;4.748;2022-10-04T16:26:01;5.47;;;3.33;;
15126;SDS011;7664;52.008;4.748;2022-10-04T16:28:40;4.88;;;3.40;;
15126;SDS011;7664;52.008;4.748;2022-10-04T16:31:35;4.35;;;3.42;;
15126;SDS011;7664;52.008;4.748;2022-10-04T16:34:43;5.28;;;3.08;;
15126;SDS011;7664;52.008;4.748;2022-10-04T16:37:16;7.10;;;3.42;;
15126;SDS011;7664;52.008;4.748;2022-10-04T16:39:52;6.40;;;3.53;;
15126;SDS011;7664;52.008;4.748;2022-10-04T16:42:26;3.50;;;2.70;;
15126;SDS011;7664;52.008;4.748;2022-10-04T16:45:25;4.63;;;2.60;;
15126;SDS011;7664;52.008;4.748;2022-10-04T16:47:59;3.20;;;2.85;;
15126;SDS011;7664;52.008;4.748;2022-10-04T16:50:51;3.53;;;2.80;;
15126;SDS011;7664;52.008;4.748;2022-10-04T16:53:31;5.13;;;2.88;;
15126;SDS011;7664;52.008;4.748;2022-10-04T16:56:10;5.40;;;3.15;;
15126;SDS011;7664;52.008;4.748;2022-10-04T16:58:41;4.40;;;2.53;;
15126;SDS011;7664;52.008;4.748;2022-10-04T17:04:50;7.93;;;3.08;;
15126;SDS011;7664;52.008;4.748;2022-10-04T17:07:32;5.68;;;3.10;;
15126;SDS011;7664;52.008;4.748;2022-10-04T17:10:33;3.55;;;2.78;;